Time;durP1;ratioP1;P1;durP2;ratioP2;P2;SDS_P1;SDS_P2;PMS_P1;PMS_P2;Temp;Humidity;BMP_temperature;BMP_pressure;BME280_temperature;BME280_humidity;BME280_pressure;Samples;Min_cycle;Max_cycle;Signal;HPM_P1;HPM_P2
2023/03/20 00:00:27;;;;;;;34.70;19.98;;;;;;;9.92;73.24;101280.78;4969746;28;20393;-81
2023/03/20 00:02:53;;;;;;;37.67;21.13;;;;;;;9.90;73.04;101277.34;4969724;28;20042;-81
2023/03/20 00:05:22;;;;;;;32.72;19.52;;;;;;;9.90;73.27;101271.97;4969529;28;20093;-80
2023/03/20 00:07:49;;;;;;;41.67;19.52;;;;;;;9.93;73.77;101278.94;4969803;28;20046;-81
2023/03/20 00:10:16;;;;;;;43.58;21.17;;;;;;;9.97;73.64;101275.09;4969181;28;20026;-78
2023/03/20 00:12:42;;;;;;;34.78;21.65;;;;;;;10.00;73.71;101274.88;4972146;28;20077;-80
2023/03/20 00:15:33;;;;;;;41.30;22.05;;;;;;;10.05;73.27;101267.34;4978382;28;20027;-81
2023/03/20 00:17:59;;;;;;;40.47;22.52;;;;;;;9.99;73.43;101262.41;4974428;28;20057;-79
2023/03/20 00:20:24;;;;;;;40.90;20.25;;;;;;;9.97;73.48;101256.28;4969631;28;20414;-80
2023/03/20 00:22:51;;;;;;;38.83;22.00;;;;;;;9.81;73.65;101259.16;4969552;28;20030;-80
2023/03/20 00:25:21;;;;;;;38.22;21.27;;;;;;;9.78;74.08;101249.47;4969077;28;20035;-79
2023/03/20 00:27:47;;;;;;;38.10;19.25;;;;;;;9.88;73.69;101252.38;4969118;28;20096;-81
2023/03/20 00:30:32;;;;;;;40.45;19.13;;;;;;;9.85;73.93;101256.16;4969241;28;20030;-80
2023/03/20 00:32:58;;;;;;;34.72;17.10;;;;;;;9.71;74.15;101250.88;4968914;28;20046;-81
2023/03/20 00:35:29;;;;;;;38.38;18.88;;;;;;;9.77;74.19;101258.50;4969188;28;20709;-81
2023/03/20 00:37:57;;;;;;;35.50;19.02;;;;;;;9.77;74.38;101253.13;4969300;28;20046;-80
2023/03/20 00:40:29;;;;;;;34.10;18.42;;;;;;;9.76;74.32;101256.78;4969153;28;20019;-80
2023/03/20 00:43:00;;;;;;;33.88;17.58;;;;;;;9.73;74.49;101256.97;4969365;28;20535;-81
2023/03/20 00:45:27;;;;;;;32.75;18.40;;;;;;;9.71;74.31;101248.19;4969674;28;20439;-80
2023/03/20 00:47:53;;;;;;;37.47;17.67;;;;;;;9.68;74.24;101239.47;4966078;28;20050;-80
2023/03/20 00:50:28;;;;;;;38.13;17.23;;;;;;;9.54;75.22;101236.84;4968997;28;20019;-79
2023/03/20 00:52:55;;;;;;;42.35;17.77;;;;;;;9.57;74.83;101223.22;4966700;28;20051;-79
2023/03/20 00:55:23;;;;;;;27.85;17.13;;;;;;;9.63;74.95;101231.69;4969295;28;20545;-79
2023/03/20 00:57:59;;;;;;;30.77;17.55;;;;;;;9.61;75.16;101222.91;4968466;28;20422;-80
2023/03/20 01:00:42;;;;;;;30.17;16.25;;;;;;;9.69;74.99;101233.13;4968976;28;20031;-81
2023/03/20 01:03:15;;;;;;;30.25;18.17;;;;;;;9.77;75.09;101242.38;4969220;28;20455;-80
2023/03/20 01:05:41;;;;;;;28.05;16.85;;;;;;;9.81;74.94;101233.13;4971573;28;20497;-80
2023/03/20 01:08:15;;;;;;;27.15;16.08;;;;;;;9.64;74.79;101221.81;4972589;28;20058;-80
2023/03/20 01:10:43;;;;;;;36.53;17.02;;;;;;;9.49;75.48;101230.91;4976861;28;20054;-80
2023/03/20 01:13:18;;;;;;;25.00;14.90;;;;;;;9.26;76.64;101233.31;4982998;28;20114;-81
2023/03/20 01:15:43;;;;;;;36.67;18.83;;;;;;;9.05;77.40;101215.09;4980063;28;20031;-80
2023/03/20 01:18:12;;;;;;;29.13;18.40;;;;;;;9.08;77.77;101231.00;4972472;28;20037;-80
2023/03/20 01:20:38;;;;;;;30.85;17.50;;;;;;;9.14;78.31;101230.59;4972549;28;20031;-81
2023/03/20 01:23:04;;;;;;;30.88;17.98;;;;;;;9.11;77.90;101222.75;4972051;28;20545;-82
2023/03/20 01:25:30;;;;;;;32.15;18.55;;;;;;;9.08;78.35;101225.63;4972057;28;20439;-80
2023/03/20 01:27:56;;;;;;;40.53;20.73;;;;;;;9.01;78.50;101227.84;4971915;28;20085;-80
2023/03/20 01:30:28;;;;;;;31.73;18.08;;;;;;;9.03;78.80;101222.38;4972588;28;20081;-80
2023/03/20 01:32:55;;;;;;;41.50;17.75;;;;;;;9.10;79.06;101221.88;4972238;28;20031;-80
2023/03/20 01:35:23;;;;;;;40.65;19.60;;;;;;;9.21;78.64;101226.53;4971900;28;20133;-80
2023/03/20 01:37:50;;;;;;;32.03;19.60;;;;;;;9.31;78.21;101227.66;4971930;28;20375;-80
2023/03/20 01:40:40;;;;;;;37.97;20.25;;;;;;;9.23;77.82;101216.56;4972433;28;20042;-79
2023/03/20 01:43:15;;;;;;;35.53;20.00;;;;;;;9.15;77.89;101216.19;4972209;28;20469;-80
2023/03/20 01:45:52;;;;;;;34.47;19.45;;;;;;;9.16;78.02;101223.28;4971983;28;20061;-81
2023/03/20 01:48:18;;;;;;;35.13;20.70;;;;;;;9.15;78.09;101206.34;4971659;28;20039;-80
2023/03/20 01:50:43;;;;;;;39.78;19.17;;;;;;;9.21;77.87;101211.28;4972087;28;20069;-80
2023/03/20 01:53:17;;;;;;;32.17;19.65;;;;;;;9.08;77.95;101218.41;4972304;28;20425;-79
2023/03/20 01:55:45;;;;;;;33.85;19.60;;;;;;;9.12;77.75;101217.28;4971846;28;20026;-80
2023/03/20 01:58:40;;;;;;;36.03;19.15;;;;;;;9.06;78.29;101209.63;4971906;28;20031;-79
2023/03/20 02:01:09;;;;;;;37.97;19.75;;;;;;;9.08;78.84;101205.00;4971348;28;20081;-81
2023/03/20 02:03:35;;;;;;;48.15;21.80;;;;;;;9.17;78.78;101206.25;4972187;28;20046;-80
2023/03/20 02:06:00;;;;;;;33.63;20.27;;;;;;;9.22;78.81;101206.78;4971806;28;20035;-80
2023/03/20 02:08:28;;;;;;;41.25;22.30;;;;;;;9.26;78.70;101206.47;4974261;28;20082;-79
2023/03/20 02:10:55;;;;;;;33.53;20.08;;;;;;;9.26;77.91;101192.22;4982915;28;20022;-80
2023/03/20 02:13:21;;;;;;;38.28;20.67;;;;;;;9.34;78.03;101199.72;4978704;28;20019;-79
2023/03/20 02:16:09;;;;;;;40.60;20.17;;;;;;;9.34;77.80;101197.91;4971617;28;20041;-81
2023/03/20 02:18:35;;;;;;;35.20;20.63;;;;;;;9.39;77.53;101193.09;4971283;28;20035;-80
2023/03/20 02:21:38;;;;;;;33.67;20.55;;;;;;;9.46;77.36;101182.78;4971973;28;20038;-81
2023/03/20 02:24:40;;;;;;;34.60;19.60;;;;;;;9.42;77.27;101187.50;4971347;28;20487;-80
2023/03/20 02:27:24;;;;;;;37.30;20.57;;;;;;;9.46;77.39;101194.41;4971415;28;20104;-79
2023/03/20 02:30:26;;;;;;;36.47;20.90;;;;;;;9.42;77.16;101187.50;4970901;28;20302;-80
2023/03/20 02:33:23;;;;;;;38.13;22.33;;;;;;;9.38;77.16;101187.84;4971268;28;20042;-80
2023/03/20 02:36:26;;;;;;;36.33;20.50;;;;;;;9.46;77.35;101186.34;4971069;28;20410;-80
2023/03/20 02:39:38;;;;;;;33.67;20.40;;;;;;;9.52;77.42;101177.88;4969370;28;20042;-80
2023/03/20 02:42:23;;;;;;;42.70;20.95;;;;;;;9.59;76.90;101178.31;4970886;28;20105;-79
2023/03/20 02:45:19;;;;;;;33.15;20.80;;;;;;;9.53;77.12;101176.91;4971732;28;20031;-81
2023/03/20 02:48:00;;;;;;;35.97;20.67;;;;;;;9.58;77.23;101166.72;4929794;29;20052;-81
2023/03/20 02:50:50;;;;;;;32.00;19.93;;;;;;;9.55;76.82;101156.19;4930011;29;20487;-80
2023/03/20 02:53:27;;;;;;;42.53;20.25;;;;;;;9.54;76.82;101169.72;4930413;29;20047;-79
2023/03/20 02:56:10;;;;;;;36.40;19.55;;;;;;;9.53;76.78;101150.06;4929610;29;20028;-79
2023/03/20 02:58:47;;;;;;;34.15;19.30;;;;;;;9.64;76.67;101160.91;4929431;29;20448;-80
2023/03/20 03:01:29;;;;;;;37.50;20.88;;;;;;;9.62;76.79;101152.13;4929741;29;20092;-80
2023/03/20 03:04:08;;;;;;;;;;;;;;;9.72;76.96;101163.94;4930647;29;20043;-80
2023/03/20 03:06:38;;;;;;;31.52;18.83;;;;;;;9.71;76.39;101156.00;4930413;29;19918;-79
2023/03/20 03:09:14;;;;;;;36.13;20.20;;;;;;;9.76;76.35;101164.56;4934774;29;20520;-80
2023/03/20 03:11:47;;;;;;;43.35;20.40;;;;;;;9.70;76.92;101154.25;4935095;29;20542;-79
2023/03/20 03:14:20;;;;;;;29.75;18.15;;;;;;;9.70;76.72;101144.38;4930258;29;20566;-81
2023/03/20 03:16:48;;;;;;;38.67;19.02;;;;;;;9.65;76.65;101143.84;4929630;29;20094;-80
2023/03/20 03:19:27;;;;;;;32.97;20.10;;;;;;;9.64;76.92;101152.00;4929465;29;20079;-80
2023/03/20 03:21:52;;;;;;;30.17;18.75;;;;;;;9.62;77.00;101149.44;4929644;29;20043;-79
2023/03/20 03:24:30;;;;;;;36.53;21.05;;;;;;;9.62;77.38;101141.38;4940116;28;20042;-79
2023/03/20 03:26:58;;;;;;;37.33;21.17;;;;;;;9.57;77.55;101138.13;4970341;28;20038;-83
2023/03/20 03:29:29;;;;;;;32.80;19.60;;;;;;;9.57;77.83;101138.13;4970029;28;20037;-82
2023/03/20 03:31:55;;;;;;;38.08;20.25;;;;;;;9.64;77.83;101150.19;4970543;28;20057;-80
2023/03/20 03:34:22;;;;;;;38.63;20.50;;;;;;;9.65;77.29;101146.53;4969662;28;20391;-80
2023/03/20 03:36:54;;;;;;;42.53;22.65;;;;;;;9.58;77.59;101139.00;4971981;28;20034;-80
2023/03/20 03:39:24;;;;;;;;;;;;;;;9.62;77.54;101149.44;4972071;28;20035;-79
2023/03/20 03:42:03;;;;;;;37.05;20.65;;;;;;;9.62;77.87;101144.06;4971499;28;19910;-80
2023/03/20 03:45:10;;;;;;;35.47;18.98;;;;;;;9.67;77.74;101149.97;4972619;28;20027;-81
2023/03/20 03:48:05;;;;;;;37.50;20.02;;;;;;;9.61;77.80;101152.22;4902095;29;20096;-79
2023/03/20 03:50:47;;;;;;;36.30;19.70;;;;;;;9.52;78.26;101167.13;4849425;29;20048;-79
2023/03/20 03:53:16;;;;;;;41.97;19.90;;;;;;;9.53;78.90;101163.50;4846211;29;20129;-79
2023/03/20 03:55:52;;;;;;;35.80;21.10;;;;;;;9.56;79.07;101167.78;4852699;29;20052;-78
2023/03/20 03:58:46;;;;;;;36.67;19.98;;;;;;;9.58;78.94;101168.53;4851097;29;20049;-78
2023/03/20 04:01:15;;;;;;;39.78;20.38;;;;;;;9.62;78.70;101168.22;4836195;29;20038;-79
2023/03/20 04:03:51;;;;;;;45.42;21.77;;;;;;;9.60;78.84;101156.72;4835940;29;20161;-81
2023/03/20 04:06:17;;;;;;;34.17;22.13;;;;;;;9.58;78.94;101161.34;4842542;29;20042;-79
2023/03/20 04:08:42;;;;;;;36.28;19.48;;;;;;;9.62;78.86;101168.22;4843583;29;20053;-81
2023/03/20 04:11:14;;;;;;;44.85;22.05;;;;;;;9.47;79.13;101166.59;4842146;29;20098;-79
2023/03/20 04:13:40;;;;;;;38.65;20.27;;;;;;;9.30;79.45;101164.19;4841452;29;20486;-78
2023/03/20 04:16:09;;;;;;;39.35;22.13;;;;;;;9.47;79.57;101181.84;4835589;29;20042;-78
2023/03/20 04:18:35;;;;;;;37.03;21.05;;;;;;;9.48;79.25;101167.47;4835787;29;20459;-78
2023/03/20 04:21:01;;;;;;;44.75;20.63;;;;;;;9.46;79.04;101170.25;4835499;29;20655;-80
2023/03/20 04:23:26;;;;;;;55.92;22.90;;;;;;;9.43;79.20;101167.75;4828834;29;20100;-80
2023/03/20 04:25:52;;;;;;;34.00;21.38;;;;;;;9.31;79.42;101157.84;4872449;29;20033;-79
2023/03/20 04:28:18;;;;;;;36.05;20.80;;;;;;;9.26;79.38;101154.63;4940188;28;20294;-79
2023/03/20 04:30:47;;;;;;;48.28;20.48;;;;;;;9.32;79.67;101166.78;4947905;28;20046;-80
2023/03/20 04:33:12;;;;;;;37.33;19.65;;;;;;;9.32;79.99;101178.38;4948107;28;20042;-79
2023/03/20 04:35:38;;;;;;;36.83;20.45;;;;;;;9.35;80.04;101172.81;4948492;29;20031;-81
2023/03/20 04:38:03;;;;;;;42.17;25.08;;;;;;;9.46;79.73;101180.97;4959690;28;20486;-81
2023/03/20 04:40:30;;;;;;;50.25;22.58;;;;;;;9.55;79.84;101179.47;4971402;28;20473;-81
2023/03/20 04:42:55;;;;;;;45.70;22.67;;;;;;;9.61;79.51;101174.56;4973648;28;20290;-79
2023/03/20 04:45:21;;;;;;;40.22;23.17;;;;;;;9.47;79.19;101180.03;4973572;28;20165;-80
2023/03/20 04:47:46;;;;;;;58.40;22.75;;;;;;;9.49;79.27;101178.09;4974056;28;20038;-81
2023/03/20 04:50:13;;;;;;;43.78;23.15;;;;;;;9.38;79.28;101177.97;4974001;28;20483;-82
2023/03/20 04:52:38;;;;;;;40.75;21.35;;;;;;;9.36;79.34;101176.34;4973557;28;20823;-79
2023/03/20 04:55:04;;;;;;;54.15;21.58;;;;;;;9.46;79.37;101183.66;4973664;28;20101;-80
2023/03/20 04:57:30;;;;;;;39.85;23.20;;;;;;;9.46;79.52;101182.78;4973614;28;20030;-81
2023/03/20 04:59:56;;;;;;;42.58;24.40;;;;;;;9.42;79.44;101171.41;4973437;28;20038;-80
2023/03/20 05:02:21;;;;;;;45.42;25.35;;;;;;;9.42;79.42;101181.31;4973674;28;20027;-80
2023/03/20 05:04:47;;;;;;;51.60;23.60;;;;;;;9.41;79.28;101185.81;4976845;28;20050;-80
2023/03/20 05:07:12;;;;;;;42.40;22.63;;;;;;;9.28;79.21;101187.59;4980505;28;20041;-79
2023/03/20 05:09:38;;;;;;;49.28;24.50;;;;;;;9.19;80.07;101190.88;4975125;28;20054;-80
2023/03/20 05:12:04;;;;;;;58.55;23.65;;;;;;;9.17;79.90;101176.72;4973109;28;20038;-79
2023/03/20 05:14:29;;;;;;;46.85;23.60;;;;;;;9.12;79.92;101194.94;4971062;28;20214;-81
2023/03/20 05:16:55;;;;;;;58.55;23.73;;;;;;;9.03;80.45;101190.19;4973139;28;20035;-82
2023/03/20 05:19:20;;;;;;;48.30;24.02;;;;;;;9.04;80.56;101195.47;4973136;28;20218;-82
2023/03/20 05:21:46;;;;;;;54.33;25.27;;;;;;;9.07;80.96;101202.44;4973694;28;20050;-83
2023/03/20 05:24:11;;;;;;;40.72;22.88;;;;;;;9.13;81.03;101207.41;4973120;28;20407;-81
2023/03/20 05:26:37;;;;;;;52.67;21.73;;;;;;;9.23;80.61;101209.34;4972879;28;20030;-79
2023/03/20 05:29:02;;;;;;;45.65;22.83;;;;;;;9.06;80.41;101200.72;4972625;28;20037;-79
2023/03/20 05:31:27;;;;;;;50.63;25.38;;;;;;;9.06;80.14;101206.06;4972511;28;20031;-78
2023/03/20 05:33:53;;;;;;;57.85;24.08;;;;;;;9.07;80.60;101205.13;4972888;28;20038;-78
2023/03/20 05:36:19;;;;;;;56.53;24.63;;;;;;;8.98;80.41;101171.72;4972922;28;20046;-79
2023/03/20 05:38:44;;;;;;;52.65;26.63;;;;;;;9.26;80.01;101197.59;4972366;28;20030;-78
2023/03/20 05:41:10;;;;;;;56.13;26.67;;;;;;;9.28;80.11;101191.13;4972488;28;20457;-78
2023/03/20 05:43:35;;;;;;;58.50;24.48;;;;;;;9.29;80.13;101192.00;4972578;28;20710;-79
2023/03/20 05:46:01;;;;;;;54.15;23.83;;;;;;;9.35;80.31;101180.84;4972284;28;20386;-79
2023/03/20 05:48:26;;;;;;;56.15;26.23;;;;;;;9.43;79.66;101175.81;4972352;28;20034;-77
2023/03/20 05:50:52;;;;;;;42.63;23.38;;;;;;;9.45;79.29;101181.09;4971493;28;20509;-77
2023/03/20 05:53:17;;;;;;;74.43;25.50;;;;;;;9.47;78.87;101184.53;4971379;28;20371;-79
2023/03/20 05:55:46;;;;;;;67.05;25.63;;;;;;;9.51;78.78;101192.25;4973253;28;20027;-85
2023/03/20 05:58:12;;;;;;;87.85;26.10;;;;;;;9.58;78.50;101188.19;4974827;28;20034;-78
2023/03/20 06:00:38;;;;;;;67.72;27.73;;;;;;;9.61;78.74;101189.81;4987507;28;20030;-81
2023/03/20 06:03:05;;;;;;;76.60;25.65;;;;;;;9.60;78.72;101197.00;4976171;28;20039;-82
2023/03/20 06:05:32;;;;;;;56.53;24.85;;;;;;;9.68;78.55;101193.81;4985739;28;20102;-80
2023/03/20 06:07:57;;;;;;;81.93;28.20;;;;;;;9.69;78.65;101191.00;4977899;28;20050;-80
2023/03/20 06:10:23;;;;;;;67.75;27.80;;;;;;;9.67;78.12;101201.00;4972390;28;20026;-81
2023/03/20 06:12:49;;;;;;;97.65;24.75;;;;;;;9.62;78.70;101192.41;4972049;28;20034;-81
2023/03/20 06:15:14;;;;;;;97.13;26.77;;;;;;;9.47;78.92;101195.28;4972650;28;20118;-82
2023/03/20 06:17:39;;;;;;;85.85;29.50;;;;;;;9.74;78.87;101188.88;4972271;28;20042;-83
2023/03/20 06:20:06;;;;;;;70.63;25.15;;;;;;;9.75;78.86;101198.63;4972499;28;20023;-82
2023/03/20 06:22:31;;;;;;;74.45;23.45;;;;;;;9.87;78.85;101198.78;4972047;28;20034;-81
2023/03/20 06:24:57;;;;;;;62.80;25.50;;;;;;;9.96;78.12;101184.69;4972177;28;20038;-82
2023/03/20 06:27:22;;;;;;;40.67;22.92;;;;;;;10.13;77.33;101201.38;4985628;28;20049;-83
2023/03/20 06:29:48;;;;;;;48.65;23.42;;;;;;;10.12;76.56;101191.56;4972333;28;20031;-83
2023/03/20 06:32:16;;;;;;;46.10;24.00;;;;;;;10.02;76.20;101189.63;4971710;28;20022;-80
2023/03/20 06:34:41;;;;;;;47.50;23.58;;;;;;;10.05;76.41;101194.78;4971931;28;20144;-81
2023/03/20 06:37:07;;;;;;;43.92;23.50;;;;;;;9.91;76.63;101187.69;4971526;28;20066;-80
2023/03/20 06:39:32;;;;;;;46.53;23.65;;;;;;;9.93;77.16;101201.91;4972017;28;20122;-81
2023/03/20 06:41:58;;;;;;;61.67;23.75;;;;;;;9.96;77.29;101203.50;4972122;28;20107;-81
2023/03/20 06:44:23;;;;;;;52.28;25.42;;;;;;;9.99;77.25;101200.59;4971849;28;20034;-82
2023/03/20 06:46:49;;;;;;;68.82;30.70;;;;;;;9.99;77.14;101204.16;4971393;28;20081;-81
2023/03/20 06:49:15;;;;;;;57.92;27.50;;;;;;;10.05;77.78;101194.78;4971475;28;20019;-81
2023/03/20 06:51:41;;;;;;;52.58;25.40;;;;;;;10.07;77.57;101185.66;4971903;28;20030;-82
2023/03/20 06:54:06;;;;;;;45.10;24.67;;;;;;;9.98;76.76;101198.88;4971535;28;20038;-80
2023/03/20 06:56:32;;;;;;;60.08;23.90;;;;;;;9.90;77.37;101202.09;4971728;28;20037;-81
2023/03/20 06:58:57;;;;;;;43.72;24.65;;;;;;;9.85;77.38;101196.16;4971791;28;20034;-81
2023/03/20 07:01:23;;;;;;;57.97;26.08;;;;;;;9.78;77.84;101201.09;4982356;28;20831;-82
2023/03/20 07:03:49;;;;;;;45.90;24.52;;;;;;;9.80;77.81;101209.94;4985117;28;20031;-81
2023/03/20 07:06:16;;;;;;;76.90;25.88;;;;;;;9.86;78.13;101214.03;4977251;28;20039;-80
2023/03/20 07:08:42;;;;;;;86.40;25.85;;;;;;;10.01;78.30;101212.09;4971705;28;20077;-80
2023/03/20 07:11:08;;;;;;;43.95;22.38;;;;;;;9.88;78.20;101211.25;4971629;28;20406;-81
2023/03/20 07:13:34;;;;;;;45.50;24.40;;;;;;;10.01;77.68;101223.72;4971895;28;20464;-81
2023/03/20 07:16:01;;;;;;;73.80;26.95;;;;;;;10.06;77.26;101213.47;4971998;28;20114;-81
2023/03/20 07:18:26;;;;;;;57.95;25.52;;;;;;;10.17;77.45;101216.34;4971455;28;20041;-82
2023/03/20 07:20:54;;;;;;;51.25;25.30;;;;;;;10.05;76.56;101209.09;4971596;28;20031;-82
2023/03/20 07:23:19;;;;;;;44.63;24.10;;;;;;;10.06;76.58;101208.13;4971083;28;20054;-80
2023/03/20 07:25:45;;;;;;;48.17;25.60;;;;;;;10.10;76.98;101211.44;4971184;28;20061;-82
2023/03/20 07:28:11;;;;;;;49.40;22.48;;;;;;;10.02;76.62;101208.44;4971309;28;20152;-81
2023/03/20 07:30:37;;;;;;;86.50;31.20;;;;;;;9.97;76.58;101210.59;4971381;28;20070;-83
2023/03/20 07:33:02;;;;;;;54.85;24.80;;;;;;;10.06;76.73;101200.06;4971882;28;20035;-81
2023/03/20 07:35:27;;;;;;;41.67;23.58;;;;;;;10.06;76.14;101212.66;4971516;28;20026;-80
2023/03/20 07:37:53;;;;;;;49.53;23.75;;;;;;;9.96;76.21;101208.88;4971246;28;20113;-82
2023/03/20 07:40:18;;;;;;;39.97;21.95;;;;;;;10.04;76.09;101206.50;4971754;28;20022;-81
2023/03/20 07:42:46;;;;;;;45.05;23.20;;;;;;;10.01;75.73;101212.09;4971756;28;20030;-80
2023/03/20 07:45:13;;;;;;;54.22;25.05;;;;;;;9.85;75.93;101210.47;4971661;28;20117;-80
2023/03/20 07:47:39;;;;;;;63.13;24.80;;;;;;;9.88;76.79;101211.25;4971105;28;20038;-81
2023/03/20 07:50:05;;;;;;;61.47;24.70;;;;;;;9.96;76.72;101219.63;4970923;28;20065;-82
2023/03/20 07:52:30;;;;;;;52.47;23.75;;;;;;;10.04;76.58;101228.00;4970663;28;20037;-82
2023/03/20 07:54:56;;;;;;;47.10;25.33;;;;;;;10.19;75.51;101213.53;4970780;28;20023;-81
2023/03/20 07:57:21;;;;;;;77.85;27.45;;;;;;;10.30;75.73;101219.03;4971289;28;20064;-81
2023/03/20 07:59:47;;;;;;;46.47;23.85;;;;;;;10.31;75.19;101209.97;4986289;28;20031;-79
2023/03/20 08:02:16;;;;;;;62.30;24.65;;;;;;;10.34;75.40;101199.00;4962697;28;20126;-82
2023/03/20 08:04:43;;;;;;;46.28;23.50;;;;;;;10.51;74.74;101212.13;4987405;28;20042;-81
2023/03/20 08:07:09;;;;;;;54.55;25.02;;;;;;;10.53;74.59;101206.59;4996815;28;20038;-78
2023/03/20 08:09:34;;;;;;;50.33;26.55;;;;;;;10.22;75.05;101205.25;4984010;28;20194;-80
2023/03/20 08:12:00;;;;;;;44.15;25.23;;;;;;;10.14;74.59;101202.25;4987902;28;20027;-80
2023/03/20 08:14:25;;;;;;;56.58;25.17;;;;;;;10.03;75.66;101204.81;4971593;28;20070;-83
2023/03/20 08:16:51;;;;;;;59.25;26.30;;;;;;;10.07;75.52;101211.66;4970910;28;20121;-81
2023/03/20 08:19:16;;;;;;;50.95;26.15;;;;;;;9.99;76.19;101214.03;4970999;28;20031;-82
2023/03/20 08:21:42;;;;;;;63.15;28.17;;;;;;;9.88;76.57;101205.88;4970751;28;20101;-81
2023/03/20 08:24:07;;;;;;;56.38;26.45;;;;;;;9.93;76.35;101217.16;4970357;28;20031;-83
2023/03/20 08:26:33;;;;;;;57.50;26.55;;;;;;;10.12;76.59;101215.75;4970171;28;20082;-83
2023/03/20 08:28:58;;;;;;;50.35;25.17;;;;;;;10.11;75.83;101214.03;4970225;28;20089;-82
2023/03/20 08:31:24;;;;;;;53.03;26.75;;;;;;;10.08;76.16;101208.03;4970040;28;20023;-82
2023/03/20 08:33:50;;;;;;;58.38;28.92;;;;;;;10.22;76.30;101211.47;4969529;28;20045;-84
2023/03/20 08:36:19;;;;;;;113.85;35.72;;;;;;;10.32;76.05;101211.69;4969727;28;20023;-83
2023/03/20 08:38:44;;;;;;;41.45;22.73;;;;;;;10.37;75.68;101213.09;4969713;28;20758;-82
2023/03/20 08:41:10;;;;;;;48.60;24.92;;;;;;;10.20;74.07;101193.75;4970127;28;20054;-83
2023/03/20 08:43:35;;;;;;;53.13;23.52;;;;;;;10.26;74.38;101222.88;4970185;28;20042;-81
2023/03/20 08:46:01;;;;;;;44.20;21.80;;;;;;;10.09;73.86;101220.50;4970063;28;20639;-82
2023/03/20 08:48:26;;;;;;;54.65;24.73;;;;;;;10.22;74.42;101219.56;4969893;28;20093;-82
2023/03/20 08:50:52;;;;;;;42.40;22.30;;;;;;;10.39;74.10;101223.75;4969818;28;20026;-81
2023/03/20 08:53:17;;;;;;;153.23;33.13;;;;;;;10.68;73.10;101213.56;4969767;28;20041;-83
2023/03/20 08:55:50;;;;;;;50.92;23.25;;;;;;;10.75;72.03;101213.03;4971023;28;20074;-81
2023/03/20 08:58:16;;;;;;;69.28;23.77;;;;;;;11.02;71.60;101218.22;4983839;28;20034;-83
2023/03/20 09:00:42;;;;;;;49.28;22.25;;;;;;;11.11;70.77;101216.66;4984092;28;20475;-81
2023/03/20 09:03:17;;;;;;;43.67;22.33;;;;;;;10.78;70.87;101206.56;4970125;28;20042;-82
2023/03/20 09:05:44;;;;;;;67.88;24.25;;;;;;;11.16;71.02;101209.13;4969705;28;20023;-81
2023/03/20 09:08:10;;;;;;;65.30;24.00;;;;;;;11.34;69.74;101208.56;4969819;28;20063;-83
2023/03/20 09:10:35;;;;;;;38.00;21.80;;;;;;;11.42;69.54;101202.63;4969914;28;20033;-82
2023/03/20 09:13:01;;;;;;;82.30;25.23;;;;;;;11.69;69.52;101202.34;4969984;28;20409;-82
2023/03/20 09:15:26;;;;;;;51.15;22.92;;;;;;;11.93;69.06;101197.78;4969689;28;20482;-81
2023/03/20 09:17:52;;;;;;;64.05;24.65;;;;;;;12.11;67.68;101200.91;4969961;28;20118;-81
2023/03/20 09:20:17;;;;;;;78.43;25.42;;;;;;;12.39;66.52;101200.41;4970907;28;20516;-82
2023/03/20 09:22:44;;;;;;;52.67;23.08;;;;;;;12.18;66.32;101177.84;4971305;28;20082;-83
2023/03/20 09:25:10;;;;;;;75.00;25.05;;;;;;;12.27;66.47;101201.38;4970137;28;20648;-81
2023/03/20 09:27:37;;;;;;;87.32;26.63;;;;;;;12.53;66.09;101192.09;4972844;28;20023;-81
2023/03/20 09:30:04;;;;;;;33.90;20.27;;;;;;;12.52;65.67;101187.66;4973180;28;20031;-82
2023/03/20 09:32:30;;;;;;;56.30;21.08;;;;;;;12.54;65.29;101185.69;4973009;28;20101;-81
2023/03/20 09:34:55;;;;;;;41.08;20.67;;;;;;;12.56;65.74;101186.44;4972932;28;20031;-84
2023/03/20 09:37:21;;;;;;;63.53;23.05;;;;;;;12.55;65.48;101182.88;4972983;28;20106;-83
2023/03/20 09:39:46;;;;;;;56.00;20.88;;;;;;;12.50;65.24;101181.53;4973473;28;20038;-82
2023/03/20 09:42:21;;;;;;;50.35;21.70;;;;;;;12.45;65.83;101175.63;4975027;28;20042;-81
2023/03/20 09:45:14;;;;;;;50.05;21.98;;;;;;;12.61;65.17;101176.13;4973525;28;20558;-81
2023/03/20 09:48:05;;;;;;;36.15;19.38;;;;;;;12.43;64.93;101183.00;4972159;28;20031;-82
2023/03/20 09:50:36;;;;;;;73.40;23.45;;;;;;;12.53;65.29;101173.19;4972842;28;20406;-82
2023/03/20 09:53:27;;;;;;;67.53;21.40;;;;;;;12.49;65.15;101166.31;4972437;28;20045;-83
2023/03/20 09:55:54;;;;;;;48.40;19.45;;;;;;;12.38;65.25;101171.75;4987830;28;20037;-82
2023/03/20 09:58:28;;;;;;;55.17;19.35;;;;;;;12.38;66.02;101175.28;4988732;28;20030;-82
2023/03/20 10:00:57;;;;;;;42.33;15.98;;;;;;;12.29;65.57;101175.16;4973625;28;20042;-82
2023/03/20 10:03:41;;;;;;;59.03;18.98;;;;;;;12.42;65.90;101167.78;4972905;28;20034;-82
2023/03/20 10:06:13;;;;;;;46.08;15.65;;;;;;;12.53;65.64;101160.56;4972110;28;20057;-82
2023/03/20 10:08:38;;;;;;;49.30;14.45;;;;;;;12.26;65.29;101151.16;4971981;28;20154;-81
2023/03/20 10:11:16;;;;;;;54.35;14.00;;;;;;;12.22;66.31;101164.00;4972757;28;20030;-82
2023/03/20 10:13:48;;;;;;;235.77;34.72;;;;;;;12.01;66.60;101146.84;4954583;28;20038;-82
2023/03/20 10:16:48;;;;;;;38.38;13.07;;;;;;;11.87;67.47;101147.06;4973079;28;20027;-83
2023/03/20 10:19:28;;;;;;;45.88;13.13;;;;;;;11.76;68.30;101147.03;4932010;29;20484;-82
2023/03/20 10:22:09;;;;;;;44.58;14.18;;;;;;;11.50;69.15;101138.25;4933285;29;20127;-80
2023/03/20 10:24:41;;;;;;;42.92;14.07;;;;;;;11.57;69.55;101139.50;4945159;29;20039;-80
2023/03/20 10:27:20;;;;;;;45.40;14.23;;;;;;;11.65;69.34;101147.00;4954913;29;20091;-82
2023/03/20 10:29:58;;;;;;;36.22;15.18;;;;;;;11.54;69.34;101145.13;4937619;29;20059;-82
2023/03/20 10:32:51;;;;;;;44.67;13.50;;;;;;;11.71;69.00;101141.16;4947546;29;20084;-82
2023/03/20 10:35:21;;;;;;;;;;;;;;;11.74;68.66;101144.44;4932063;29;20116;-80
2023/03/20 10:37:50;;;;;;;31.25;13.13;;;;;;;11.75;69.81;101148.88;4930825;29;19914;-79
2023/03/20 10:40:25;;;;;;;37.58;12.75;;;;;;;11.84;68.72;101150.84;4938387;29;20467;-82
2023/03/20 10:42:54;;;;;;;36.30;13.48;;;;;;;11.88;69.45;101146.94;4931621;29;20183;-80
2023/03/20 10:45:38;;;;;;;28.85;12.50;;;;;;;11.79;69.01;101142.28;4932784;29;20503;-81
2023/03/20 10:48:14;;;;;;;36.22;14.70;;;;;;;11.84;69.38;101137.38;4934116;29;20046;-81
2023/03/20 10:50:45;;;;;;;42.20;14.50;;;;;;;12.29;68.61;101137.41;4931451;29;20052;-83
2023/03/20 10:53:23;;;;;;;43.20;12.33;;;;;;;12.35;67.52;101142.31;4941223;29;20043;-82
2023/03/20 10:55:49;;;;;;;39.25;13.85;;;;;;;12.42;67.59;101138.13;4966458;28;20066;-82
2023/03/20 10:58:21;;;;;;;44.00;13.80;;;;;;;12.79;66.45;101128.72;4979424;28;20486;-82
2023/03/20 11:00:47;;;;;;;46.53;12.98;;;;;;;13.11;65.44;101131.50;4976856;28;20038;-80
2023/03/20 11:03:22;;;;;;;61.00;13.70;;;;;;;13.26;64.48;101113.13;4977995;28;20058;-82
2023/03/20 11:05:55;;;;;;;57.85;15.05;;;;;;;13.51;63.78;101113.63;4983794;28;20027;-82
2023/03/20 11:08:23;;;;;;;80.15;14.00;;;;;;;13.61;63.26;101114.53;4962183;28;20118;-84
2023/03/20 11:10:58;;;;;;;52.28;13.00;;;;;;;13.64;62.44;101113.41;4980498;28;20035;-82
2023/03/20 11:13:33;;;;;;;68.88;14.15;;;;;;;13.69;62.74;101115.72;4983114;28;20033;-80
2023/03/20 11:16:30;;;;;;;61.95;14.73;;;;;;;13.70;62.21;101115.56;4982930;28;20041;-82
2023/03/20 11:19:04;;;;;;;42.95;11.98;;;;;;;13.76;62.64;101115.03;4939957;29;20177;-83
2023/03/20 11:21:30;;;;;;;40.28;12.25;;;;;;;13.72;62.20;101110.03;4940109;29;20730;-82
2023/03/20 11:23:56;;;;;;;50.63;13.50;;;;;;;13.52;62.40;101104.50;4933318;29;20042;-82
2023/03/20 11:26:37;;;;;;;53.33;12.57;;;;;;;13.59;62.62;101104.84;4930648;29;20165;-81
2023/03/20 11:29:06;;;;;;;55.75;13.93;;;;;;;13.85;62.48;101100.72;4929884;29;20046;-81